Terminal Aerodrome Forecast
Issued by NWS

Home | Current Version | Previous Version | Text Only | Print | Product List | Glossary On
Versions: 1 2 3 4 5 6 7 8 9 10 11 12 13
000
FTUS44 KSJT 281143
TAFBBD
TAF
KBBD 281143Z 2812/0112 18007KT 6SM BR OVC011
      TEMPO 2812/2816 4SM BR
     FM281700 21011KT P6SM BKN250
     FM010600 27008KT P6SM SCT250
      AMD NOT SKED=

USA.gov is the U.S. government's official web portal to all federal, state and local government web resources and services.